Time;durP1;ratioP1;P1;durP2;ratioP2;P2;SDS_P1;SDS_P2;PMS_P1;PMS_P2;Temp;Humidity;BMP_temperature;BMP_pressure;BME280_temperature;BME280_humidity;BME280_pressure;Samples;Min_cycle;Max_cycle;Signal;HPM_P1;HPM_P2
2023/07/03 00:01:41;;;;;;;9.60;8.15;;;;;;;22.36;67.58;99441.70;1743895;82;21116;-63
2023/07/03 00:04:10;;;;;;;10.03;7.62;;;;;;;22.37;67.59;99434.16;1744137;82;21678;-65
2023/07/03 00:06:41;;;;;;;9.08;7.67;;;;;;;22.37;67.82;99429.41;1743867;82;21658;-63
2023/07/03 00:09:11;;;;;;;9.83;7.97;;;;;;;22.38;67.87;99428.28;1744062;82;21120;-64
2023/07/03 00:11:39;;;;;;;10.82;7.97;;;;;;;22.39;67.95;99434.12;1744194;82;21108;-63
2023/07/03 00:14:08;;;;;;;9.78;7.47;;;;;;;22.39;68.08;99443.06;1743989;82;21627;-64
2023/07/03 00:16:38;;;;;;;11.85;7.55;;;;;;;22.40;68.11;99436.35;1743905;82;21117;-64
2023/07/03 00:19:07;;;;;;;10.75;7.83;;;;;;;22.40;68.12;99437.18;1744001;82;21105;-64
2023/07/03 00:21:43;;;;;;;11.03;8.20;;;;;;;22.41;68.25;99440.80;1744100;82;21128;-63
2023/07/03 00:24:08;;;;;;;9.38;8.23;;;;;;;22.40;68.30;99439.97;1743790;82;21148;-65
2023/07/03 00:26:37;;;;;;;10.60;8.43;;;;;;;22.37;68.42;99439.17;1743986;82;21105;-64
2023/07/03 00:29:06;;;;;;;11.10;7.87;;;;;;;22.35;68.50;99448.41;1743828;82;21113;-63
2023/07/03 00:31:36;;;;;;;10.40;7.60;;;;;;;22.28;68.70;99448.51;1723659;82;21132;-64
2023/07/03 00:34:05;;;;;;;10.93;7.78;;;;;;;22.20;69.04;99447.77;1743778;82;21170;-63
2023/07/03 00:36:34;;;;;;;11.38;7.55;;;;;;;22.16;69.27;99450.33;1744064;82;21231;-65
2023/07/03 00:39:04;;;;;;;8.30;7.15;;;;;;;22.12;69.52;99452.05;1744182;82;21129;-64
2023/07/03 00:41:33;;;;;;;9.33;7.78;;;;;;;22.05;69.78;99456.56;1744316;82;21125;-64
2023/07/03 00:44:02;;;;;;;8.40;7.50;;;;;;;22.03;69.99;99460.77;1744006;82;21158;-64
2023/07/03 00:46:31;;;;;;;8.90;7.72;;;;;;;22.02;70.09;99469.67;1744117;82;21543;-65
2023/07/03 00:48:59;;;;;;;9.80;7.97;;;;;;;22.01;70.40;99469.41;1744388;82;21172;-63
2023/07/03 00:51:29;;;;;;;10.98;7.58;;;;;;;21.97;70.49;99472.52;1744114;82;21125;-64
2023/07/03 00:53:59;;;;;;;9.05;7.25;;;;;;;21.98;70.64;99474.19;1723267;82;21227;-63
2023/07/03 00:56:28;;;;;;;9.75;7.70;;;;;;;21.96;70.70;99478.39;1743948;82;21253;-63
2023/07/03 00:58:56;;;;;;;9.28;7.60;;;;;;;21.93;70.80;99473.41;1743702;82;21620;-63
2023/07/03 01:01:47;;;;;;;10.48;7.47;;;;;;;21.91;71.02;99475.66;1743910;82;21196;-63
2023/07/03 01:04:21;;;;;;;10.53;7.95;;;;;;;21.89;71.16;99479.30;1744107;82;21101;-64
2023/07/03 01:07:07;;;;;;;10.50;7.70;;;;;;;21.84;71.38;99476.00;1743704;82;21155;-65
2023/07/03 01:09:43;;;;;;;8.53;7.62;;;;;;;21.84;71.48;99483.81;1743919;82;21168;-64
2023/07/03 01:12:12;;;;;;;9.98;7.53;;;;;;;21.84;71.58;99487.99;1744174;82;21101;-64
2023/07/03 01:14:41;;;;;;;9.95;7.28;;;;;;;21.87;71.54;99500.52;1723235;82;21120;-65
2023/07/03 01:17:10;;;;;;;11.63;7.17;;;;;;;21.88;71.55;99492.42;1743948;82;21108;-63
2023/07/03 01:19:42;;;;;;;13.90;8.05;;;;;;;21.88;71.60;99495.77;1744103;82;21124;-63
2023/07/03 01:22:25;;;;;;;11.53;7.92;;;;;;;21.84;71.69;99506.12;1743916;82;21128;-64
2023/07/03 01:25:00;;;;;;;11.90;8.15;;;;;;;21.82;71.89;99503.36;1724066;82;21156;-65
2023/07/03 01:27:31;;;;;;;11.00;7.83;;;;;;;;;;1743944;82;21116;-64
2023/07/03 01:30:01;;;;;;;12.75;7.92;;;;;;;21.76;72.32;99503.97;1743954;82;21120;-65
2023/07/03 01:32:30;;;;;;;10.08;7.58;;;;;;;21.75;72.36;99500.91;1743868;82;21214;-70
2023/07/03 01:35:00;;;;;;;9.18;7.17;;;;;;;21.75;72.42;99505.66;1743896;82;21097;-64
2023/07/03 01:37:31;;;;;;;8.75;7.15;;;;;;;21.70;72.59;99506.53;1744089;82;21124;-65
2023/07/03 01:40:00;;;;;;;9.85;7.17;;;;;;;21.67;72.95;99505.73;1744249;82;21152;-64
2023/07/03 01:42:29;;;;;;;12.28;7.33;;;;;;;21.64;73.17;99506.31;1723462;82;21279;-64
2023/07/03 01:44:59;;;;;;;7.87;6.75;;;;;;;21.60;73.40;99507.19;1744062;82;21141;-63
2023/07/03 01:47:27;;;;;;;12.13;7.10;;;;;;;21.59;73.64;99514.72;1744080;82;21144;-64
2023/07/03 01:49:57;;;;;;;10.93;7.00;;;;;;;21.56;73.83;99510.30;1743926;82;21113;-64
2023/07/03 01:52:50;;;;;;;12.58;7.65;;;;;;;21.52;74.01;99511.44;1743887;82;21155;-63
2023/07/03 01:55:24;;;;;;;10.00;7.28;;;;;;;21.50;74.23;99510.89;1681870;85;21162;-64
2023/07/03 01:58:10;;;;;;;9.03;7.00;;;;;;;21.49;74.45;99514.25;1731173;82;21574;-65
2023/07/03 02:00:56;;;;;;;9.30;7.33;;;;;;;21.48;74.61;99516.77;1743805;82;21156;-64
2023/07/03 02:03:32;;;;;;;8.65;6.90;;;;;;;21.48;74.79;99519.55;1744054;82;21160;-63
2023/07/03 02:06:05;;;;;;;10.57;7.90;;;;;;;21.51;74.86;99522.31;1744194;82;21714;-64
2023/07/03 02:08:34;;;;;;;13.32;8.70;;;;;;;21.50;74.84;99520.66;1743813;82;21101;-65
2023/07/03 02:11:04;;;;;;;17.48;8.20;;;;;;;21.50;75.01;99520.66;1743924;82;21155;-63
2023/07/03 02:13:32;;;;;;;10.05;7.45;;;;;;;21.53;75.05;99525.64;1743915;82;21548;-63
2023/07/03 02:16:01;;;;;;;11.18;8.18;;;;;;;21.56;74.92;99531.20;1744082;82;21144;-63
2023/07/03 02:18:31;;;;;;;8.80;7.87;;;;;;;21.57;74.75;99525.89;1744136;82;21143;-64
2023/07/03 02:21:00;;;;;;;9.45;7.90;;;;;;;21.60;74.62;99523.91;1744069;82;21109;-63
2023/07/03 02:23:32;;;;;;;11.40;8.00;;;;;;;21.61;74.60;99529.20;1744044;82;21764;-63
2023/07/03 02:26:01;;;;;;;11.83;8.50;;;;;;;21.61;74.60;99529.76;1744087;82;21113;-64
2023/07/03 02:28:30;;;;;;;11.55;8.23;;;;;;;21.62;74.68;99537.84;1743919;82;21129;-64
2023/07/03 02:30:59;;;;;;;12.35;8.60;;;;;;;21.63;74.64;99534.48;1743847;82;21588;-63
2023/07/03 02:33:30;;;;;;;13.20;8.60;;;;;;;21.63;74.58;99535.87;1744121;82;21156;-65
2023/07/03 02:36:04;;;;;;;11.12;8.38;;;;;;;21.65;74.69;99540.60;1743936;82;21120;-64
2023/07/03 02:38:32;;;;;;;11.43;8.68;;;;;;;21.68;74.67;99537.23;1743946;82;21160;-64
2023/07/03 02:41:03;;;;;;;11.60;9.10;;;;;;;21.70;74.45;99541.39;1744033;82;21156;-63
2023/07/03 02:43:31;;;;;;;12.18;8.85;;;;;;;21.74;74.02;99548.05;1743883;82;21559;-64
2023/07/03 02:46:05;;;;;;;11.08;8.75;;;;;;;21.79;73.71;99549.95;1723667;82;21125;-63
2023/07/03 02:48:35;;;;;;;12.13;9.35;;;;;;;21.86;73.62;99551.02;1744057;82;21152;-65
2023/07/03 02:51:04;;;;;;;13.32;9.28;;;;;;;21.91;73.32;99556.55;1744111;82;21152;-64
2023/07/03 02:53:33;;;;;;;12.43;9.68;;;;;;;21.96;72.95;99564.30;1744170;82;21156;-64
2023/07/03 02:56:04;;;;;;;16.15;10.18;;;;;;;22.02;72.58;99565.92;1742511;82;21167;-64
2023/07/03 02:58:33;;;;;;;12.85;9.78;;;;;;;22.05;72.16;99564.53;1743847;82;21124;-65
2023/07/03 03:01:03;;;;;;;13.62;9.83;;;;;;;22.10;71.75;99565.87;1743956;82;21152;-65
2023/07/03 03:03:33;;;;;;;11.38;9.30;;;;;;;22.10;71.46;99561.13;1699822;82;21267;-64
2023/07/03 03:06:03;;;;;;;12.60;8.85;;;;;;;22.16;71.19;99568.08;1722990;82;21121;-63
2023/07/03 03:08:33;;;;;;;11.75;8.85;;;;;;;22.19;70.81;99566.93;1743867;82;21216;-65
2023/07/03 03:11:03;;;;;;;10.60;8.80;;;;;;;22.21;70.38;99566.64;1744110;82;21084;-64
2023/07/03 03:13:31;;;;;;;10.38;9.05;;;;;;;22.21;70.18;99568.86;1744143;82;21125;-64
2023/07/03 03:16:00;;;;;;;12.73;9.63;;;;;;;22.25;70.04;99569.94;1744100;82;21183;-64
2023/07/03 03:18:29;;;;;;;13.18;8.68;;;;;;;22.27;69.71;99567.69;1743946;82;21184;-64
2023/07/03 03:20:58;;;;;;;11.25;8.98;;;;;;;22.31;69.48;99565.13;1743884;82;21124;-63
2023/07/03 03:23:27;;;;;;;11.57;9.10;;;;;;;22.35;69.24;99572.62;1744062;82;21172;-63
2023/07/03 03:25:55;;;;;;;11.97;8.58;;;;;;;22.37;68.74;99571.76;1743989;82;21160;-63
2023/07/03 03:28:25;;;;;;;13.68;8.68;;;;;;;22.39;68.75;99575.09;1743954;82;21176;-64
2023/07/03 03:30:54;;;;;;;11.03;8.65;;;;;;;22.43;68.45;99574.77;1743901;82;21180;-65
2023/07/03 03:33:24;;;;;;;10.68;8.80;;;;;;;22.45;68.28;99589.82;1743978;82;21101;-63
2023/07/03 03:35:53;;;;;;;12.53;9.03;;;;;;;22.49;67.92;99588.66;1743851;82;21128;-65
2023/07/03 03:38:24;;;;;;;13.90;9.48;;;;;;;22.50;67.68;99592.55;1744020;82;21612;-63
2023/07/03 03:40:58;;;;;;;13.20;9.45;;;;;;;22.51;67.41;99592.83;1722802;82;21574;-64
2023/07/03 03:43:29;;;;;;;15.53;9.83;;;;;;;22.53;67.24;99601.73;1744205;82;21100;-64
2023/07/03 03:46:00;;;;;;;16.20;9.08;;;;;;;22.55;67.32;99607.02;1744032;82;21419;-64
2023/07/03 03:48:30;;;;;;;14.20;9.40;;;;;;;22.54;67.32;99609.55;1744080;82;21124;-63
2023/07/03 03:51:00;;;;;;;14.03;9.38;;;;;;;22.55;67.28;99602.84;1743912;82;21167;-64
2023/07/03 03:53:34;;;;;;;11.95;8.90;;;;;;;22.55;66.96;99591.67;1744081;82;21148;-64
2023/07/03 03:56:04;;;;;;;11.57;9.53;;;;;;;22.56;66.58;99584.95;1743898;82;21292;-64
2023/07/03 03:58:33;;;;;;;9.88;8.48;;;;;;;22.58;66.39;99581.30;1743968;82;21594;-64
2023/07/03 04:01:02;;;;;;;11.40;8.35;;;;;;;22.62;66.11;99587.95;1746757;82;21105;-67
2023/07/03 04:03:30;;;;;;;11.63;8.20;;;;;;;22.66;65.71;99598.80;1749299;82;21544;-64
2023/07/03 04:06:00;;;;;;;11.00;8.43;;;;;;;22.69;65.28;99610.77;1749182;82;21144;-63
2023/07/03 04:08:29;;;;;;;8.35;7.47;;;;;;;22.73;64.84;99623.84;1749473;81;21674;-65
2023/07/03 04:10:58;;;;;;;11.12;8.60;;;;;;;22.76;64.28;99620.48;1749272;82;21324;-64
2023/07/03 04:13:28;;;;;;;12.28;8.20;;;;;;;22.75;64.13;99618.79;1749403;82;21148;-65
2023/07/03 04:16:00;;;;;;;9.85;8.15;;;;;;;22.80;63.97;99622.16;1749584;82;21128;-64
2023/07/03 04:18:31;;;;;;;12.82;8.53;;;;;;;22.84;63.33;99629.38;1749355;82;21148;-63
2023/07/03 04:20:59;;;;;;;8.98;7.83;;;;;;;22.87;63.10;99631.01;1749303;81;21638;-63
2023/07/03 04:23:29;;;;;;;9.50;7.92;;;;;;;22.90;62.92;99633.20;1749338;81;21104;-64
2023/07/03 04:25:58;;;;;;;10.65;7.60;;;;;;;22.91;62.65;99632.64;1749457;82;21139;-63
2023/07/03 04:28:28;;;;;;;12.93;7.92;;;;;;;22.92;62.34;99630.95;1749572;81;21112;-63
2023/07/03 04:30:56;;;;;;;13.40;8.33;;;;;;;22.94;62.31;99628.69;1749354;82;21156;-65
2023/07/03 04:33:26;;;;;;;9.95;7.75;;;;;;;22.96;62.20;99637.59;1749309;82;21139;-64
2023/07/03 04:35:56;;;;;;;12.78;8.30;;;;;;;22.98;62.03;99640.92;1749514;82;21200;-65
2023/07/03 04:38:24;;;;;;;11.50;7.75;;;;;;;23.01;61.94;99654.30;1749445;82;21117;-64
2023/07/03 04:40:54;;;;;;;9.78;8.30;;;;;;;23.03;62.08;99652.61;1749375;82;21124;-64
2023/07/03 04:43:23;;;;;;;12.78;8.23;;;;;;;23.05;61.98;99656.77;1749427;82;21148;-64
2023/07/03 04:45:55;;;;;;;9.63;7.83;;;;;;;23.05;62.01;99658.73;1749629;81;21113;-64
2023/07/03 04:48:24;;;;;;;9.55;7.85;;;;;;;23.05;61.62;99664.31;1749232;82;21124;-64
2023/07/03 04:50:58;;;;;;;11.20;8.40;;;;;;;23.04;61.50;99664.88;1749363;81;21559;-64
2023/07/03 04:53:27;;;;;;;10.85;8.03;;;;;;;23.04;61.41;99667.67;1749249;82;21096;-64
2023/07/03 04:55:56;;;;;;;10.35;7.92;;;;;;;23.03;61.33;99671.59;1749468;82;21163;-65
2023/07/03 04:58:25;;;;;;;9.53;7.97;;;;;;;23.01;61.33;99668.27;1749457;82;21196;-64
2023/07/03 05:00:53;;;;;;;10.18;7.78;;;;;;;22.99;61.27;99685.90;1751758;82;21528;-64
2023/07/03 05:03:23;;;;;;;11.53;8.13;;;;;;;23.00;61.12;99686.73;1757448;82;21171;-64
2023/07/03 05:05:52;;;;;;;13.78;8.88;;;;;;;23.01;61.04;99682.24;1757524;82;21120;-64
2023/07/03 05:08:24;;;;;;;12.95;8.20;;;;;;;23.03;61.19;99686.97;1757258;82;21144;-65
2023/07/03 05:10:52;;;;;;;9.48;8.00;;;;;;;23.04;60.78;99695.62;1757405;82;21187;-65
2023/07/03 05:13:21;;;;;;;11.10;7.72;;;;;;;23.05;60.70;99694.48;1757393;82;21571;-65
2023/07/03 05:15:57;;;;;;;9.78;7.62;;;;;;;23.07;60.68;99695.03;1757343;82;21176;-64
2023/07/03 05:18:26;;;;;;;13.35;8.00;;;;;;;23.11;60.35;99703.64;1757431;82;21151;-65
2023/07/03 05:20:56;;;;;;;11.63;7.85;;;;;;;23.12;60.18;99705.88;1757362;82;21151;-65
2023/07/03 05:23:25;;;;;;;8.80;7.58;;;;;;;23.12;60.07;99707.27;1757318;82;21151;-64
2023/07/03 05:25:54;;;;;;;8.83;7.28;;;;;;;23.13;60.16;99718.72;1757440;82;21124;-65
2023/07/03 05:28:24;;;;;;;10.90;7.55;;;;;;;23.14;60.07;99716.19;1757682;82;21120;-63
2023/07/03 05:30:58;;;;;;;13.65;7.97;;;;;;;23.14;59.84;99718.98;1757328;82;21127;-65
2023/07/03 05:33:28;;;;;;;12.70;8.08;;;;;;;23.16;59.45;99716.73;1757182;82;21112;-65
2023/07/03 05:36:00;;;;;;;11.97;7.87;;;;;;;23.22;59.73;99722.52;1730082;82;21128;-65
2023/07/03 05:38:29;;;;;;;9.35;7.50;;;;;;;23.30;59.89;99717.11;1757146;82;21112;-64
2023/07/03 05:40:58;;;;;;;11.03;7.50;;;;;;;23.39;59.57;99722.30;1757144;82;21143;-65
2023/07/03 05:43:27;;;;;;;9.88;7.78;;;;;;;23.52;59.47;99723.56;1730337;82;21112;-64
2023/07/03 05:45:56;;;;;;;11.15;7.85;;;;;;;23.70;59.35;99721.39;1757207;82;21151;-65
2023/07/03 05:48:25;;;;;;;13.13;7.72;;;;;;;23.86;58.79;99722.00;1757380;82;21195;-64
2023/07/03 05:50:55;;;;;;;9.70;7.47;;;;;;;23.96;58.18;99721.02;1757144;82;21116;-64
2023/07/03 05:53:24;;;;;;;9.93;7.37;;;;;;;24.08;57.92;99724.22;1757325;82;21120;-65
2023/07/03 05:55:56;;;;;;;11.93;7.70;;;;;;;24.32;56.83;99731.98;1757484;82;21123;-64
2023/07/03 05:58:26;;;;;;;10.72;7.70;;;;;;;24.63;56.24;99740.70;1757235;82;21155;-65
2023/07/03 06:00:55;;;;;;;11.08;7.80;;;;;;;24.95;55.19;99736.23;1757114;82;21125;-65
2023/07/03 06:03:26;;;;;;;9.65;7.10;;;;;;;25.12;54.17;99739.28;1757325;82;21555;-66
2023/07/03 06:05:55;;;;;;;10.08;6.83;;;;;;;25.20;53.90;99736.33;1757451;82;21124;-65
2023/07/03 06:08:24;;;;;;;9.85;6.55;;;;;;;25.19;53.63;99739.70;1757241;82;21135;-65
2023/07/03 06:10:53;;;;;;;12.55;7.40;;;;;;;25.23;53.33;99743.55;1757342;82;21172;-65
2023/07/03 06:13:22;;;;;;;11.55;7.25;;;;;;;25.35;52.77;99750.05;1757327;82;21135;-65
2023/07/03 06:15:51;;;;;;;12.90;6.80;;;;;;;25.56;52.64;99744.88;1757140;82;21123;-65
2023/07/03 06:18:19;;;;;;;10.13;7.53;;;;;;;25.80;51.91;99737.64;1757545;82;21176;-64
2023/07/03 06:20:49;;;;;;;9.10;7.00;;;;;;;26.03;51.55;99735.75;1757312;81;21163;-65
2023/07/03 06:23:19;;;;;;;11.30;6.80;;;;;;;26.28;50.73;99742.73;1757246;82;21587;-65
2023/07/03 06:25:48;;;;;;;8.73;6.30;;;;;;;26.53;49.80;99751.97;1757167;82;21575;-66
2023/07/03 06:28:17;;;;;;;9.13;6.47;;;;;;;26.79;47.76;99741.76;1757356;82;21148;-65
2023/07/03 06:30:48;;;;;;;8.80;5.40;;;;;;;27.10;47.50;99749.39;1757222;82;21552;-66
2023/07/03 06:33:19;;;;;;;9.33;6.15;;;;;;;27.42;45.35;99740.63;1730470;82;21562;-66
2023/07/03 06:35:49;;;;;;;7.40;6.05;;;;;;;27.62;45.11;99741.21;1757164;82;21140;-65
2023/07/03 06:38:18;;;;;;;7.45;6.25;;;;;;;27.83;45.05;99750.70;1757425;82;21136;-66
2023/07/03 06:41:01;;;;;;;11.00;6.05;;;;;;;28.05;45.14;99753.98;1757271;82;21120;-63
2023/07/03 06:43:30;;;;;;;11.45;6.67;;;;;;;28.35;44.34;99745.16;1757266;82;21661;-65
2023/07/03 06:45:59;;;;;;;12.85;6.90;;;;;;;28.50;43.18;99758.75;1757206;82;21116;-67
2023/07/03 06:48:28;;;;;;;9.25;6.70;;;;;;;28.45;42.83;99759.50;1757197;82;21140;-66
2023/07/03 06:51:07;;;;;;;9.05;6.22;;;;;;;28.28;43.43;99758.92;1757242;82;21123;-66
2023/07/03 06:53:36;;;;;;;13.68;6.87;;;;;;;28.14;43.42;99766.09;1757198;82;21182;-65
2023/07/03 06:56:05;;;;;;;11.95;6.33;;;;;;;27.99;43.81;99769.39;1757143;82;21119;-65
2023/07/03 06:58:34;;;;;;;9.35;6.95;;;;;;;27.82;44.32;99774.95;1757442;82;21100;-65
2023/07/03 07:01:09;;;;;;;6.95;5.85;;;;;;;27.59;44.62;99777.02;1755567;82;21156;-64
2023/07/03 07:03:38;;;;;;;6.92;5.35;;;;;;;27.29;43.75;99778.69;1743891;82;21144;-64
2023/07/03 07:06:15;;;;;;;6.72;5.95;;;;;;;27.02;44.53;99781.95;1744036;82;21116;-65
2023/07/03 07:08:44;;;;;;;9.18;6.37;;;;;;;26.87;45.61;99780.08;1744010;82;21144;-64
2023/07/03 07:11:15;;;;;;;9.93;6.25;;;;;;;26.74;45.88;99781.24;1744321;82;21152;-64
2023/07/03 07:13:46;;;;;;;12.43;6.30;;;;;;;26.63;46.10;99786.00;1744052;82;21121;-66
2023/07/03 07:16:20;;;;;;;9.05;6.95;;;;;;;26.59;45.90;99785.81;1743921;82;21144;-65
2023/07/03 07:18:54;;;;;;;8.03;5.80;;;;;;;26.64;46.15;99790.47;1743988;82;21196;-64
2023/07/03 07:21:23;;;;;;;10.80;5.90;;;;;;;26.74;46.31;99791.08;1744103;82;21587;-66
2023/07/03 07:23:58;;;;;;;10.08;5.20;;;;;;;26.88;45.71;99791.58;1744045;82;21132;-65
2023/07/03 07:26:33;;;;;;;6.40;5.50;;;;;;;27.07;44.49;99783.22;1744320;82;21128;-66
2023/07/03 07:29:01;;;;;;;8.38;5.47;;;;;;;27.37;44.08;99782.14;1744077;82;21120;-65
2023/07/03 07:31:31;;;;;;;7.15;4.75;;;;;;;27.69;43.80;99790.82;1744102;82;21156;-65
2023/07/03 07:34:01;;;;;;;13.13;6.08;;;;;;;27.96;43.42;99803.27;1743903;82;21116;-64
2023/07/03 07:36:32;;;;;;;16.25;7.35;;;;;;;28.18;42.28;99795.27;1744014;82;21125;-66
2023/07/03 07:39:01;;;;;;;9.83;6.42;;;;;;;28.41;42.16;99803.02;1743948;82;21556;-66
2023/07/03 07:41:31;;;;;;;9.88;5.95;;;;;;;28.52;41.12;99814.20;1744130;82;21144;-65
2023/07/03 07:44:00;;;;;;;7.00;5.50;;;;;;;28.57;41.41;99795.72;1744104;82;21116;-65
2023/07/03 07:46:30;;;;;;;6.60;5.45;;;;;;;28.72;41.45;99808.51;1743808;82;21618;-65
2023/07/03 07:49:01;;;;;;;7.22;5.10;;;;;;;28.83;40.65;99807.58;1722982;82;21160;-64
2023/07/03 07:51:29;;;;;;;8.00;5.58;;;;;;;28.90;40.16;99803.70;1743929;82;21164;-66
2023/07/03 07:53:59;;;;;;;6.55;4.95;;;;;;;28.93;39.79;99801.05;1743729;82;21646;-65
2023/07/03 07:56:29;;;;;;;6.60;4.92;;;;;;;28.97;39.38;99804.02;1743944;82;21040;-66
2023/07/03 07:58:59;;;;;;;6.22;5.08;;;;;;;29.01;39.65;99805.84;1723333;82;21084;-66
2023/07/03 08:01:28;;;;;;;6.87;4.33;;;;;;;29.03;39.79;99804.92;1743692;82;21120;-67
2023/07/03 08:03:59;;;;;;;5.95;4.50;;;;;;;29.11;38.98;99808.89;1743502;82;21064;-68
2023/07/03 08:06:29;;;;;;;7.30;4.33;;;;;;;29.35;38.83;99809.17;1744116;81;20989;-67
2023/07/03 08:08:58;;;;;;;7.25;4.90;;;;;;;29.70;38.64;99816.12;1681553;85;21031;-67
2023/07/03 08:11:30;;;;;;;7.83;4.80;;;;;;;30.03;37.88;99815.50;1732266;82;21443;-66
2023/07/03 08:13:59;;;;;;;7.72;5.70;;;;;;;30.37;37.77;99815.27;1749472;82;21087;-66
2023/07/03 08:16:28;;;;;;;9.58;5.50;;;;;;;30.66;37.40;99813.59;1771315;81;21513;-67
2023/07/03 08:18:58;;;;;;;12.18;5.42;;;;;;;30.71;36.79;99814.80;1708079;84;21035;-65
2023/07/03 08:21:27;;;;;;;7.37;4.85;;;;;;;30.68;36.70;99813.48;1753247;81;21033;-68
2023/07/03 08:23:57;;;;;;;7.60;5.17;;;;;;;30.64;36.49;99821.00;1744110;82;22003;-67
2023/07/03 08:26:27;;;;;;;9.75;5.33;;;;;;;30.62;36.81;99816.87;1743673;82;21495;-67
2023/07/03 08:28:56;;;;;;;7.53;5.20;;;;;;;30.68;36.97;99828.21;1743723;82;21431;-66
2023/07/03 08:31:26;;;;;;;6.40;4.80;;;;;;;30.74;36.72;99825.41;1743685;82;21075;-68
2023/07/03 08:33:55;;;;;;;7.33;4.12;;;;;;;30.89;36.29;99828.42;1743598;82;21280;-67
2023/07/03 08:36:25;;;;;;;5.78;3.60;;;;;;;31.03;35.32;99828.70;1743961;82;21031;-67
2023/07/03 08:38:57;;;;;;;6.33;4.60;;;;;;;30.98;34.93;99834.59;1743686;82;21078;-66
2023/07/03 08:41:27;;;;;;;6.17;4.58;;;;;;;30.80;34.67;99832.52;1743794;82;21020;-66
2023/07/03 08:43:56;;;;;;;5.22;4.15;;;;;;;30.59;34.92;99833.94;1743684;81;21073;-66
2023/07/03 08:46:27;;;;;;;6.17;4.35;;;;;;;30.32;35.22;99836.66;1733428;82;21048;-68
2023/07/03 08:49:03;;;;;;;6.97;4.60;;;;;;;30.04;35.89;99834.11;1743746;82;21008;-67
2023/07/03 08:51:34;;;;;;;6.72;4.20;;;;;;;29.80;36.27;99836.92;1743707;81;21012;-71
2023/07/03 08:54:22;;;;;;;8.95;5.42;;;;;;;29.61;37.05;99844.39;1743748;81;21099;-68
2023/07/03 08:56:51;;;;;;;6.28;4.55;;;;;;;29.47;37.83;99836.73;1743767;82;21487;-67
2023/07/03 08:59:21;;;;;;;6.53;4.67;;;;;;;29.41;37.77;99845.10;1743961;82;21456;-67
2023/07/03 09:02:04;;;;;;;7.25;4.60;;;;;;;29.36;37.59;99835.41;1744053;81;21039;-66
2023/07/03 09:05:05;;;;;;;8.83;4.58;;;;;;;29.41;38.12;99839.45;1743717;81;21483;-68
2023/07/03 09:07:43;;;;;;;7.25;4.67;;;;;;;29.41;37.79;99845.10;1724532;81;21044;-66
2023/07/03 09:10:43;;;;;;;8.78;4.85;;;;;;;29.44;37.82;99845.04;1743743;81;21059;-67
2023/07/03 09:13:33;;;;;;;5.15;4.50;;;;;;;29.52;37.73;99837.95;1743998;81;21495;-66
2023/07/03 09:16:23;;;;;;;5.92;5.25;;;;;;;29.70;37.43;99838.71;1743611;82;21574;-69
2023/07/03 09:19:04;;;;;;;6.20;4.65;;;;;;;29.82;37.32;99840.23;1743905;82;21001;-68
2023/07/03 09:21:35;;;;;;;7.42;5.10;;;;;;;29.86;37.22;99834.73;1743738;82;21567;-67
2023/07/03 09:24:30;;;;;;;6.62;4.60;;;;;;;29.88;37.60;99838.04;1743747;82;21091;-67
2023/07/03 09:27:20;;;;;;;6.97;5.22;;;;;;;29.92;37.86;99837.63;1743735;82;21068;-66
2023/07/03 09:29:50;;;;;;;7.42;4.90;;;;;;;30.02;37.77;99842.09;1743780;82;21052;-68
2023/07/03 09:32:27;;;;;;;6.83;4.87;;;;;;;30.04;37.68;99846.23;1743794;82;21068;-67
2023/07/03 09:35:17;;;;;;;5.70;4.87;;;;;;;29.97;37.90;99845.33;1744040;82;21013;-68
2023/07/03 09:37:50;;;;;;;5.83;5.05;;;;;;;29.90;37.93;99839.36;1743684;82;21017;-67
2023/07/03 09:40:27;;;;;;;8.23;5.20;;;;;;;29.86;38.30;99848.85;1743785;82;21052;-69
2023/07/03 09:42:57;;;;;;;6.58;5.30;;;;;;;29.76;38.43;99845.83;1743654;82;21465;-66
2023/07/03 09:45:33;;;;;;;10.28;5.87;;;;;;;29.72;38.82;99846.26;1743798;82;21121;-68
2023/07/03 09:48:24;;;;;;;8.10;5.53;;;;;;;29.72;38.45;99846.26;1743793;82;21528;-67
2023/07/03 09:50:54;;;;;;;8.40;5.25;;;;;;;29.57;39.04;99838.35;1743886;82;21029;-67
2023/07/03 09:53:30;;;;;;;7.17;5.40;;;;;;;29.40;39.24;99849.09;1742429;82;21065;-67
2023/07/03 09:56:00;;;;;;;6.00;5.15;;;;;;;29.27;39.65;99852.36;1743770;82;21088;-66
2023/07/03 09:58:30;;;;;;;8.40;5.03;;;;;;;29.16;39.63;99849.63;1743799;82;21029;-67
2023/07/03 10:01:00;;;;;;;6.03;5.33;;;;;;;29.19;39.77;99843.30;1743694;82;21068;-66
2023/07/03 10:03:32;;;;;;;8.65;5.10;;;;;;;29.19;39.88;99840.48;1718002;82;21531;-66
2023/07/03 10:06:15;;;;;;;7.75;4.90;;;;;;;29.19;40.31;99842.48;1741874;82;21092;-65
2023/07/03 10:08:50;;;;;;;12.65;5.42;;;;;;;29.21;39.90;99844.38;1741953;82;21083;-66
2023/07/03 10:11:27;;;;;;;5.42;4.10;;;;;;;29.24;38.96;99848.77;1710260;82;21041;-68
2023/07/03 10:13:55;;;;;;;6.55;3.90;;;;;;;29.31;38.05;99838.41;1741632;82;21076;-67
2023/07/03 10:16:25;;;;;;;6.00;3.80;;;;;;;29.34;37.57;99841.97;1754952;82;21051;-66
2023/07/03 10:18:55;;;;;;;6.30;3.75;;;;;;;29.22;37.73;99837.57;1726190;82;21039;-68
2023/07/03 10:21:25;;;;;;;5.70;4.00;;;;;;;29.18;38.23;99834.59;1663425;85;21125;-68
2023/07/03 10:23:54;;;;;;;8.35;4.00;;;;;;;29.18;38.18;99836.00;1725945;82;21016;-67
2023/07/03 10:26:28;;;;;;;5.70;3.50;;;;;;;29.20;38.17;99842.72;1690331;85;21074;-66
2023/07/03 10:29:41;;;;;;;16.00;4.05;;;;;;;29.23;38.08;99845.70;1690220;85;21499;-67
2023/07/03 10:32:13;;;;;;;6.67;3.10;;;;;;;29.25;37.17;99847.61;1755206;81;21110;-65
2023/07/03 10:34:52;;;;;;;6.87;3.50;;;;;;;29.28;37.27;99850.38;1690254;85;21023;-65
2023/07/03 10:37:21;;;;;;;3.47;3.17;;;;;;;29.35;37.43;99844.45;1690257;85;21035;-66
2023/07/03 10:39:57;;;;;;;5.72;3.15;;;;;;;29.43;37.32;99851.82;1726110;82;21079;-66
2023/07/03 10:42:43;;;;;;;7.90;3.70;;;;;;;29.48;36.90;99852.50;1755579;82;21106;-66
2023/07/03 10:45:14;;;;;;;;;;;;;;;29.49;36.48;99842.03;1757951;82;21055;-66
2023/07/03 10:47:54;;;;;;;5.45;3.77;;;;;;;29.53;36.58;99841.61;1755120;82;20180;-66
2023/07/03 10:50:32;;;;;;;6.70;3.35;;;;;;;29.52;36.54;99837.12;1755128;82;21055;-68
2023/07/03 10:53:28;;;;;;;6.83;3.65;;;;;;;29.53;36.82;99837.37;1690186;85;21047;-66
2023/07/03 10:56:18;;;;;;;7.50;5.25;;;;;;;29.54;36.67;99839.02;1690623;85;21479;-68
2023/07/03 10:58:55;;;;;;;6.83;3.60;;;;;;;29.50;36.80;99832.40;1755068;81;21038;-67
2023/07/03 11:01:46;;;;;;;6.55;3.70;;;;;;;29.41;37.17;99825.34;1755025;82;21055;-66
2023/07/03 11:04:22;;;;;;;5.65;3.80;;;;;;;29.36;37.16;99835.41;1749797;82;21518;-66
2023/07/03 11:07:11;;;;;;;6.25;3.65;;;;;;;29.25;37.43;99834.08;1726777;82;21027;-69
2023/07/03 11:10:04;;;;;;;5.45;3.83;;;;;;;29.14;38.07;99831.37;1687193;85;21071;-75
2023/07/03 11:12:44;;;;;;;6.37;4.08;;;;;;;29.07;38.63;99835.28;1749225;82;21031;-77
2023/07/03 11:15:37;;;;;;;6.35;3.70;;;;;;;29.03;38.87;99828.07;1663312;85;21111;-74
2023/07/03 11:18:32;;;;;;;8.40;3.67;;;;;;;28.97;39.35;99833.64;1743611;82;21124;-69
2023/07/03 11:21:34;;;;;;;6.58;4.17;;;;;;;28.82;39.87;99832.14;1743675;82;21001;-65
2023/07/03 11:24:16;;;;;;;8.65;4.10;;;;;;;28.76;39.90;99830.65;1677077;85;21100;-69
2023/07/03 11:26:59;;;;;;;9.23;4.35;;;;;;;28.73;39.93;99836.38;1677306;85;21116;-68
2023/07/03 11:29:29;;;;;;;7.10;4.00;;;;;;;28.72;40.13;99831.89;1677038;85;21535;-68
2023/07/03 11:31:58;;;;;;;5.28;3.50;;;;;;;28.64;40.30;99829.91;1677275;84;21035;-67
2023/07/03 11:34:27;;;;;;;6.35;3.90;;;;;;;28.60;39.30;99827.47;1677068;85;21055;-65
2023/07/03 11:36:59;;;;;;;4.83;3.45;;;;;;;28.63;39.51;99822.61;1677159;85;21154;-68
2023/07/03 11:39:33;;;;;;;7.40;3.80;;;;;;;28.75;39.14;99825.34;1676896;85;21491;-68
2023/07/03 11:42:10;;;;;;;4.47;2.95;;;;;;;28.85;38.89;99832.08;1677035;85;21071;-67
2023/07/03 11:44:47;;;;;;;4.72;2.80;;;;;;;28.89;38.83;99821.79;1677147;85;21523;-67
2023/07/03 11:47:33;;;;;;;5.28;2.90;;;;;;;28.93;38.24;99823.61;1677231;85;21107;-68
2023/07/03 11:50:06;;;;;;;5.53;2.72;;;;;;;28.93;38.10;99816.56;1677169;84;21110;-67
2023/07/03 11:52:38;;;;;;;5.22;2.70;;;;;;;28.97;38.09;99831.65;1677234;84;21142;-67
2023/07/03 11:55:18;;;;;;;5.20;2.90;;;;;;;28.96;37.70;99828.58;1676960;84;21565;-65
2023/07/03 11:57:49;;;;;;;2.62;2.40;;;;;;;28.96;37.51;99825.76;1677211;84;21047;-67